createdAt,value
2023-02-16T00:01:04.901Z,5.98
2023-02-16T00:03:39.074Z,5.95
2023-02-16T00:06:07.354Z,5.91
2023-02-16T00:08:35.710Z,5.89
2023-02-16T00:11:22.533Z,5.85
2023-02-16T00:13:53.172Z,5.80
2023-02-16T00:16:22.272Z,5.77
2023-02-16T00:18:50.547Z,5.78
2023-02-16T00:21:19.012Z,5.79
2023-02-16T00:23:48.539Z,5.76
2023-02-16T00:26:18.259Z,5.75
2023-02-16T00:28:48.955Z,5.74
2023-02-16T00:31:24.503Z,5.74
2023-02-16T00:33:53.055Z,5.74
2023-02-16T00:36:23.775Z,5.72
2023-02-16T00:38:51.919Z,5.72
2023-02-16T00:41:43.301Z,5.73
2023-02-16T00:44:16.149Z,5.73
2023-02-16T00:46:45.108Z,5.72
2023-02-16T00:49:14.317Z,5.73
2023-02-16T00:51:42.820Z,5.74
2023-02-16T00:54:11.048Z,5.73
2023-02-16T00:56:39.452Z,5.73
2023-02-16T00:59:09.351Z,5.76
2023-02-16T01:01:39.025Z,5.76
2023-02-16T01:04:08.084Z,5.76
2023-02-16T01:06:55.013Z,5.77
2023-02-16T01:09:41.794Z,5.73
2023-02-16T01:12:14.016Z,5.69
2023-02-16T01:14:42.022Z,5.66
2023-02-16T01:17:10.520Z,5.63
2023-02-16T01:19:38.416Z,5.64
2023-02-16T01:22:06.729Z,5.63
2023-02-16T01:24:34.686Z,5.61
2023-02-16T01:27:03.887Z,5.58
2023-02-16T01:29:31.850Z,5.58
2023-02-16T01:31:59.858Z,5.56
2023-02-16T01:34:28.288Z,5.55
2023-02-16T01:36:59.295Z,5.54
2023-02-16T01:39:27.205Z,5.55
2023-02-16T01:42:14.078Z,5.56
2023-02-16T01:44:44.944Z,5.54
2023-02-16T01:47:28.243Z,5.55
2023-02-16T01:49:56.267Z,5.53
2023-02-16T01:52:34.432Z,5.52
2023-02-16T01:55:10.420Z,5.51
2023-02-16T01:57:39.024Z,5.49
2023-02-16T02:00:14.144Z,5.50
2023-02-16T02:02:50.792Z,5.51
2023-02-16T02:05:36.971Z,5.52
2023-02-16T02:08:06.494Z,5.52
2023-02-16T02:10:40.544Z,5.51
2023-02-16T02:13:16.753Z,5.51
2023-02-16T02:15:45.538Z,5.50
2023-02-16T02:18:13.991Z,5.50
2023-02-16T02:21:22.141Z,5.49
2023-02-16T02:24:08.598Z,5.46
2023-02-16T02:26:43.060Z,5.46
2023-02-16T02:29:23.415Z,5.45
2023-02-16T02:32:07.925Z,5.44
2023-02-16T02:34:51.380Z,5.42
2023-02-16T02:37:19.319Z,5.42
2023-02-16T02:39:50.736Z,5.44
2023-02-16T02:42:23.749Z,5.43
2023-02-16T02:44:56.385Z,5.44
2023-02-16T02:47:36.548Z,5.47
2023-02-16T02:50:24.490Z,5.49
2023-02-16T02:52:52.628Z,5.49
2023-02-16T02:55:39.220Z,5.49
2023-02-16T02:58:26.101Z,5.50
2023-02-16T03:00:55.382Z,5.49
2023-02-16T03:03:23.324Z,5.49
2023-02-16T03:05:52.924Z,5.50
2023-02-16T03:08:24.074Z,5.49
2023-02-16T03:11:13.400Z,5.46
2023-02-16T03:13:50.544Z,5.43
2023-02-16T03:16:29.424Z,5.43
2023-02-16T03:19:16.518Z,5.45
2023-02-16T03:22:03.494Z,5.42
2023-02-16T03:24:51.172Z,5.40
2023-02-16T03:27:41.300Z,5.40
2023-02-16T03:30:10.093Z,5.40
2023-02-16T03:32:39.275Z,5.40
2023-02-16T03:35:08.853Z,5.40
2023-02-16T03:37:36.862Z,5.38
2023-02-16T03:40:24.977Z,5.37
2023-02-16T03:42:53.178Z,5.37
2023-02-16T03:45:21.438Z,5.36
2023-02-16T03:47:49.627Z,5.36
2023-02-16T03:50:17.663Z,5.37
2023-02-16T03:52:45.572Z,5.37
2023-02-16T04:05:12.685Z,5.29
2023-02-16T04:07:40.664Z,5.31
2023-02-16T04:10:08.864Z,5.30
2023-02-16T04:12:36.891Z,5.28
2023-02-16T04:15:05.939Z,5.26
2023-02-16T04:17:34.066Z,5.26
2023-02-16T04:20:02.337Z,5.27
2023-02-16T04:22:30.540Z,5.28
2023-02-16T04:24:58.435Z,5.28
2023-02-16T04:27:26.382Z,5.29
2023-02-16T04:29:56.707Z,5.28
2023-02-16T04:32:24.620Z,5.27
2023-02-16T04:34:52.593Z,5.28
2023-02-16T04:37:21.112Z,5.27
2023-02-16T04:39:49.091Z,5.30
2023-02-16T04:42:17.041Z,5.32
2023-02-16T04:44:45.135Z,5.35
2023-02-16T04:47:13.078Z,5.38
2023-02-16T04:49:41.030Z,5.40
2023-02-16T04:52:09.529Z,5.41
2023-02-16T04:54:37.445Z,5.43
2023-02-16T04:57:05.858Z,5.45
2023-02-16T04:59:33.938Z,5.46
2023-02-16T05:02:01.878Z,5.46
2023-02-16T05:04:29.899Z,5.48
2023-02-16T05:06:57.866Z,5.49
2023-02-16T05:09:25.816Z,5.54
2023-02-16T05:12:12.748Z,5.56
2023-02-16T05:14:45.058Z,5.59
2023-02-16T05:17:16.088Z,5.61
2023-02-16T05:19:46.350Z,5.61
2023-02-16T05:22:14.730Z,5.60
2023-02-16T05:24:43.321Z,5.59
2023-02-16T05:27:16.017Z,5.59
2023-02-16T05:29:43.942Z,5.59
2023-02-16T05:32:12.033Z,5.62
2023-02-16T05:34:39.983Z,5.64
2023-02-16T05:37:07.872Z,5.65
2023-02-16T05:39:35.809Z,5.63
2023-02-16T05:42:03.865Z,5.62
2023-02-16T05:44:31.995Z,5.61
2023-02-16T05:47:00.044Z,5.60
2023-02-16T05:49:28.235Z,5.59
2023-02-16T05:51:56.222Z,5.54
2023-02-16T05:54:24.315Z,5.51
2023-02-16T05:56:52.746Z,5.51
2023-02-16T05:59:20.747Z,5.54
2023-02-16T06:01:51.890Z,5.58
2023-02-16T06:04:20.897Z,5.62
2023-02-16T06:06:48.873Z,5.64
2023-02-16T06:09:16.966Z,5.66
2023-02-16T06:11:44.947Z,5.68
2023-02-16T06:14:14.174Z,5.72
2023-02-16T06:16:42.976Z,5.77
2023-02-16T06:19:11.374Z,5.81
2023-02-16T06:21:39.891Z,5.84
2023-02-16T06:24:08.731Z,5.87
2023-02-16T06:26:36.946Z,5.89
2023-02-16T06:29:05.767Z,5.93
2023-02-16T06:31:36.191Z,5.94
2023-02-16T06:34:04.726Z,5.93
2023-02-16T06:36:33.270Z,5.90
2023-02-16T06:39:01.428Z,5.87
2023-02-16T06:41:34.255Z,5.87
2023-02-16T06:54:18.281Z,5.93
2023-02-16T06:56:46.437Z,5.96
2023-02-16T06:59:14.431Z,5.98
2023-02-16T07:01:44.223Z,5.98
2023-02-16T07:04:13.859Z,5.97
2023-02-16T07:06:41.879Z,5.99
2023-02-16T07:09:11.630Z,6.02
2023-02-16T07:11:41.060Z,6.04
2023-02-16T07:14:09.089Z,6.08
2023-02-16T07:16:37.271Z,6.12
2023-02-16T07:19:05.808Z,6.13
2023-02-16T07:21:33.902Z,6.12
2023-02-16T07:24:02.042Z,6.13
2023-02-16T07:26:30.065Z,6.13
2023-02-16T07:28:58.026Z,6.12
2023-02-16T07:31:26.891Z,6.13
2023-02-16T07:33:55.146Z,6.17
2023-02-16T07:36:23.094Z,6.17
2023-02-16T07:38:51.966Z,6.17
2023-02-16T07:41:20.379Z,6.17
2023-02-16T07:43:48.340Z,6.24
2023-02-16T07:46:16.594Z,6.26
2023-02-16T07:48:47.167Z,6.22
2023-02-16T07:51:25.066Z,6.20
2023-02-16T07:53:53.341Z,6.18
2023-02-16T07:56:25.494Z,6.18
2023-02-16T07:58:54.614Z,6.17
2023-02-16T08:01:23.291Z,6.13
2023-02-16T08:03:51.964Z,6.12
2023-02-16T08:06:20.482Z,6.09
2023-02-16T08:08:48.520Z,6.10
2023-02-16T08:11:24.461Z,6.10
2023-02-16T08:13:52.453Z,6.16
2023-02-16T08:16:24.586Z,6.38
2023-02-16T08:18:53.301Z,6.48
2023-02-16T08:21:23.760Z,6.46
2023-02-16T08:24:05.337Z,6.40
2023-02-16T08:26:37.686Z,6.34
2023-02-16T08:29:05.546Z,6.33
2023-02-16T08:31:35.083Z,6.29
2023-02-16T08:34:04.010Z,6.31
2023-02-16T08:36:34.602Z,6.31
2023-02-16T08:39:04.264Z,6.30
2023-02-16T08:41:33.510Z,6.29
2023-02-16T08:44:02.513Z,6.32
2023-02-16T08:46:31.168Z,6.34
2023-02-16T08:49:00.371Z,6.37
2023-02-16T08:51:29.185Z,6.39
2023-02-16T09:03:53.586Z,6.43
2023-02-16T09:06:22.559Z,6.43
2023-02-16T09:08:52.665Z,6.43
2023-02-16T09:11:20.820Z,6.45
2023-02-16T09:13:49.078Z,6.48
2023-02-16T09:16:18.308Z,6.51
2023-02-16T09:18:46.735Z,6.54
2023-02-16T09:21:16.569Z,6.55
2023-02-16T09:23:47.525Z,6.55
2023-02-16T09:26:19.558Z,6.55
2023-02-16T09:28:49.096Z,6.56
2023-02-16T09:31:25.925Z,6.58
2023-02-16T09:33:56.326Z,6.61
2023-02-16T09:36:24.435Z,6.65
2023-02-16T09:38:52.605Z,6.69
2023-02-16T09:41:56.069Z,6.72
2023-02-16T09:44:33.396Z,6.75
2023-02-16T09:47:03.607Z,6.77
2023-02-16T09:49:42.497Z,6.77
2023-02-16T09:52:29.168Z,6.79
2023-02-16T09:54:58.274Z,6.82
2023-02-16T09:57:32.483Z,6.83
2023-02-16T10:00:04.732Z,6.82
2023-02-16T10:02:40.590Z,6.83
2023-02-16T10:05:08.605Z,6.86
2023-02-16T10:07:52.927Z,6.90
2023-02-16T10:10:25.456Z,6.93
2023-02-16T10:13:05.867Z,6.98
2023-02-16T10:15:35.016Z,7.03
2023-02-16T10:18:16.627Z,7.09
2023-02-16T10:20:47.300Z,7.15
2023-02-16T10:23:15.663Z,7.23
2023-02-16T10:25:47.510Z,7.30
2023-02-16T10:28:22.628Z,7.35
2023-02-16T10:30:53.912Z,7.39
2023-02-16T10:33:40.964Z,7.45
2023-02-16T10:36:15.111Z,7.57
2023-02-16T10:38:54.715Z,7.69
2023-02-16T10:41:28.060Z,7.80
2023-02-16T10:44:05.781Z,7.87
2023-02-16T10:46:40.473Z,7.91
2023-02-16T10:49:11.290Z,7.98
2023-02-16T10:51:40.641Z,8.04
2023-02-16T10:54:13.504Z,8.11
2023-02-16T10:56:49.541Z,8.20
2023-02-16T10:59:37.775Z,8.27
2023-02-16T11:02:25.039Z,8.30
2023-02-16T11:04:55.278Z,8.35
2023-02-16T11:07:27.303Z,8.39
2023-02-16T11:09:57.395Z,8.42
2023-02-16T11:12:27.360Z,8.45
2023-02-16T11:14:58.782Z,8.52
2023-02-16T11:17:27.087Z,8.62
2023-02-16T11:20:01.967Z,8.74
2023-02-16T11:22:31.929Z,8.88
2023-02-16T11:25:18.246Z,9.00
2023-02-16T11:27:53.059Z,9.09
2023-02-16T11:30:32.250Z,9.18
2023-02-16T11:33:27.183Z,9.27
2023-02-16T11:35:56.089Z,9.36
2023-02-16T11:38:28.423Z,9.46
2023-02-16T11:40:56.329Z,9.55
2023-02-16T11:43:27.148Z,9.62
2023-02-16T11:46:10.393Z,9.76
2023-02-16T11:48:38.383Z,9.90
2023-02-16T11:51:07.950Z,10.02
2023-02-16T11:53:37.233Z,10.17
2023-02-16T11:56:12.765Z,10.30
2023-02-16T11:58:41.176Z,10.45
2023-02-16T12:01:09.203Z,10.60
2023-02-16T12:03:37.200Z,10.72
2023-02-16T12:06:06.585Z,10.85
2023-02-16T12:08:46.661Z,10.95
2023-02-16T12:11:37.369Z,10.96
2023-02-16T12:14:17.847Z,10.69
2023-02-16T12:16:52.663Z,10.45
2023-02-16T12:19:29.981Z,10.31
2023-02-16T12:22:24.547Z,10.22
2023-02-16T12:25:19.986Z,10.15
2023-02-16T12:27:48.149Z,10.13
2023-02-16T12:30:20.218Z,10.11
2023-02-16T12:33:08.155Z,10.09
2023-02-16T12:35:48.799Z,10.04
2023-02-16T12:38:26.994Z,10.07
2023-02-16T12:41:01.052Z,10.11
2023-02-16T12:43:47.862Z,10.14
2023-02-16T12:46:24.032Z,10.19
2023-02-16T12:48:55.343Z,10.24
2023-02-16T12:51:28.774Z,10.28
2023-02-16T12:54:05.000Z,10.33
2023-02-16T12:56:36.212Z,10.37
2023-02-16T12:59:07.430Z,10.39
2023-02-16T13:01:36.876Z,10.44
2023-02-16T13:04:16.076Z,10.47
2023-02-16T13:06:47.379Z,10.51
2023-02-16T13:09:24.947Z,10.53
2023-02-16T13:11:53.128Z,10.53
2023-02-16T13:14:23.542Z,10.57
2023-02-16T13:16:54.589Z,10.59
2023-02-16T13:19:22.924Z,10.60
2023-02-16T13:21:54.358Z,10.53
2023-02-16T13:24:30.040Z,10.45
2023-02-16T13:26:58.304Z,10.44
2023-02-16T13:29:35.508Z,10.41
2023-02-16T13:32:17.374Z,10.42
2023-02-16T13:35:07.223Z,10.43
2023-02-16T13:37:56.413Z,10.41
2023-02-16T13:40:25.462Z,10.38
2023-02-16T13:43:03.285Z,10.36
2023-02-16T13:45:33.072Z,10.33
2023-02-16T13:48:01.565Z,10.33
2023-02-16T13:50:31.703Z,10.32
2023-02-16T13:53:19.898Z,10.28
2023-02-16T13:55:49.641Z,10.24
2023-02-16T13:58:17.760Z,10.20
2023-02-16T14:00:47.823Z,10.14
2023-02-16T14:03:22.248Z,10.09
2023-02-16T14:05:51.920Z,10.05
2023-02-16T14:08:28.372Z,10.02
2023-02-16T14:10:58.969Z,9.98
2023-02-16T14:13:33.336Z,9.90
2023-02-16T14:16:22.613Z,9.84
2023-02-16T14:18:56.179Z,9.74
2023-02-16T14:21:44.193Z,9.65
2023-02-16T14:24:33.579Z,9.57
2023-02-16T14:27:02.987Z,9.49
2023-02-16T14:29:40.834Z,9.47
2023-02-16T14:32:21.325Z,9.70
2023-02-16T14:34:52.977Z,9.95
2023-02-16T14:37:27.858Z,10.12
2023-02-16T14:40:09.780Z,10.24
2023-02-16T14:42:42.830Z,10.33
2023-02-16T14:45:29.637Z,10.39
2023-02-16T14:48:17.871Z,10.41
2023-02-16T14:50:55.095Z,10.44
2023-02-16T14:53:29.192Z,10.44
2023-02-16T14:56:04.366Z,10.46
2023-02-16T14:58:39.701Z,10.62
2023-02-16T15:01:16.590Z,10.67
2023-02-16T15:03:46.912Z,10.65
2023-02-16T15:06:21.321Z,10.63
2023-02-16T15:08:58.518Z,10.63
2023-02-16T15:11:26.575Z,10.62
2023-02-16T15:13:54.860Z,10.66
2023-02-16T15:16:23.287Z,10.67
2023-02-16T15:18:52.180Z,10.56
2023-02-16T15:21:22.094Z,10.19
2023-02-16T15:23:51.536Z,9.77
2023-02-16T15:26:24.768Z,9.44
2023-02-16T15:28:57.081Z,9.18
2023-02-16T15:31:35.703Z,8.95
2023-02-16T15:34:05.814Z,8.72
2023-02-16T15:36:52.153Z,8.55
2023-02-16T15:39:46.424Z,8.70
2023-02-16T15:42:20.705Z,8.90
2023-02-16T15:44:49.181Z,9.06
2023-02-16T15:47:21.703Z,9.13
2023-02-16T15:49:50.223Z,9.19
2023-02-16T15:52:20.024Z,9.27
2023-02-16T15:54:48.506Z,9.34
2023-02-16T15:57:21.913Z,9.39
2023-02-16T15:59:58.688Z,9.39
2023-02-16T16:02:34.916Z,9.39
2023-02-16T16:05:05.589Z,9.38
2023-02-16T16:07:36.017Z,9.38
2023-02-16T16:10:11.991Z,9.38
2023-02-16T16:12:41.017Z,9.37
2023-02-16T16:15:15.712Z,9.39
2023-02-16T16:17:43.945Z,9.38
2023-02-16T16:20:17.884Z,9.39
2023-02-16T16:22:46.042Z,9.38
2023-02-16T16:25:31.208Z,9.37
2023-02-16T16:27:59.487Z,9.36
2023-02-16T16:30:29.090Z,9.36
2023-02-16T16:33:09.573Z,9.36
2023-02-16T16:35:39.452Z,9.35
2023-02-16T16:38:20.925Z,9.35
2023-02-16T16:40:51.075Z,9.35
2023-02-16T16:43:19.264Z,9.33
2023-02-16T16:45:48.701Z,9.32
2023-02-16T16:48:25.244Z,9.31
2023-02-16T16:51:09.182Z,9.29
2023-02-16T16:53:43.399Z,9.27
2023-02-16T16:56:13.366Z,9.25
2023-02-16T16:58:42.128Z,9.23
2023-02-16T17:01:12.360Z,9.21
2023-02-16T17:03:40.293Z,9.21
2023-02-16T17:06:08.698Z,9.23
2023-02-16T17:08:37.523Z,9.24
2023-02-16T17:11:06.505Z,9.27
2023-02-16T17:13:34.391Z,9.30
2023-02-16T17:16:04.444Z,9.34
2023-02-16T17:18:32.722Z,9.37
2023-02-16T17:21:00.991Z,9.42
2023-02-16T17:23:29.197Z,9.46
2023-02-16T17:25:57.241Z,9.51
2023-02-16T17:28:25.381Z,9.56
2023-02-16T17:30:53.364Z,9.60
2023-02-16T17:33:21.362Z,9.65
2023-02-16T17:35:49.341Z,9.71
2023-02-16T17:38:19.048Z,9.77
2023-02-16T17:40:48.405Z,9.82
2023-02-16T17:43:17.772Z,9.84
2023-02-16T17:45:47.034Z,9.89
2023-02-16T17:48:16.828Z,9.92
2023-02-16T17:50:44.896Z,9.95
2023-02-16T17:53:13.902Z,9.97
2023-02-16T17:55:42.666Z,10.00
2023-02-16T17:58:11.487Z,10.03
2023-02-16T18:00:39.899Z,10.04
2023-02-16T18:03:08.539Z,10.07
2023-02-16T18:05:36.907Z,10.09
2023-02-16T18:08:05.201Z,10.13
2023-02-16T18:10:38.563Z,10.21
2023-02-16T18:13:07.535Z,10.24
2023-02-16T18:15:35.729Z,10.25
2023-02-16T18:18:03.947Z,10.25
2023-02-16T18:20:32.170Z,10.24
2023-02-16T18:23:00.443Z,10.26
2023-02-16T18:25:28.393Z,10.26
2023-02-16T18:27:56.372Z,10.27
2023-02-16T18:30:24.551Z,10.26
2023-02-16T18:32:52.619Z,10.23
2023-02-16T18:35:20.568Z,10.17
2023-02-16T18:37:48.603Z,10.10
2023-02-16T18:40:19.727Z,10.07
2023-02-16T18:42:47.903Z,10.07
2023-02-16T18:45:17.026Z,10.06
2023-02-16T18:47:45.328Z,10.04
2023-02-16T18:50:13.591Z,10.03
2023-02-16T18:52:45.116Z,10.02
2023-02-16T18:55:13.246Z,10.02
2023-02-16T18:57:42.361Z,10.02
2023-02-16T19:00:11.725Z,10.00
2023-02-16T19:02:41.090Z,10.02
2023-02-16T19:05:10.302Z,10.03
2023-02-16T19:07:38.357Z,10.04
2023-02-16T19:10:08.428Z,10.05
2023-02-16T19:12:37.303Z,10.06
2023-02-16T19:15:05.475Z,10.06
2023-02-16T19:17:33.673Z,10.07
2023-02-16T19:20:01.944Z,10.09
2023-02-16T19:32:13.473Z,10.03
2023-02-16T19:34:45.499Z,10.03
2023-02-16T19:37:19.781Z,10.02
2023-02-16T19:39:48.455Z,10.02
2023-02-16T19:42:16.482Z,10.00
2023-02-16T19:44:44.418Z,10.01
2023-02-16T19:47:12.532Z,10.02
2023-02-16T19:49:40.518Z,10.05
2023-02-16T19:52:08.513Z,10.06
2023-02-16T19:54:37.200Z,10.05
2023-02-16T19:57:05.260Z,10.05
2023-02-16T19:59:33.651Z,10.04
2023-02-16T20:02:01.937Z,10.04
2023-02-16T20:04:29.937Z,10.05
2023-02-16T20:06:58.049Z,10.05
2023-02-16T20:09:26.147Z,10.06
2023-02-16T20:11:54.189Z,10.05
2023-02-16T20:14:22.202Z,10.07
2023-02-16T20:16:51.926Z,10.06
2023-02-16T20:19:20.338Z,10.02
2023-02-16T20:21:48.282Z,9.95
2023-02-16T20:24:16.331Z,9.91
2023-02-16T20:26:45.591Z,9.89
2023-02-16T20:29:16.282Z,9.87
2023-02-16T20:31:49.490Z,9.85
2023-02-16T20:34:17.643Z,9.83
2023-02-16T20:51:20.185Z,9.82
2023-02-16T21:08:08.571Z,9.85
2023-02-16T21:10:37.690Z,9.88
2023-02-16T21:13:05.705Z,9.90
2023-02-16T21:15:33.666Z,9.92
2023-02-16T21:18:05.335Z,9.94
2023-02-16T21:20:35.103Z,9.95
2023-02-16T21:23:03.806Z,9.96
2023-02-16T21:25:31.777Z,9.97
2023-02-16T21:27:59.733Z,9.96
2023-02-16T21:30:28.227Z,9.95
2023-02-16T21:32:56.192Z,9.98
2023-02-16T21:35:24.210Z,9.99
2023-02-16T21:37:52.140Z,9.99
2023-02-16T21:40:39.382Z,9.99
2023-02-16T21:43:07.293Z,9.95
2023-02-16T21:45:35.302Z,9.92
2023-02-16T21:48:21.878Z,9.93
2023-02-16T21:50:50.041Z,9.92
2023-02-16T21:53:18.050Z,9.92
2023-02-16T21:56:05.334Z,9.90
2023-02-16T21:58:34.014Z,9.88
2023-02-16T22:01:02.118Z,9.87
2023-02-16T22:03:30.599Z,9.88
2023-02-16T22:06:03.082Z,9.88
2023-02-16T22:08:32.369Z,9.88
2023-02-16T22:11:10.954Z,9.88
2023-02-16T22:13:39.628Z,9.86
2023-02-16T22:16:16.687Z,9.85
2023-02-16T22:18:44.689Z,9.85
2023-02-16T22:21:12.860Z,9.87
2023-02-16T22:23:40.854Z,9.89
2023-02-16T22:26:08.970Z,9.90
2023-02-16T22:28:37.723Z,9.91
2023-02-16T22:31:06.941Z,9.92
2023-02-16T22:33:35.500Z,9.93
2023-02-16T22:36:08.577Z,9.93
2023-02-16T22:38:36.530Z,9.94
2023-02-16T22:41:05.461Z,9.93
2023-02-16T22:43:33.648Z,9.94
2023-02-16T22:46:06.464Z,9.95
2023-02-16T22:48:35.671Z,9.94
2023-02-16T22:51:04.608Z,9.95
2023-02-16T22:53:32.894Z,9.95
2023-02-16T22:56:01.231Z,9.94
2023-02-16T22:58:29.396Z,9.90
2023-02-16T23:00:57.440Z,9.88
2023-02-16T23:03:25.401Z,9.87
2023-02-16T23:05:53.365Z,9.87
2023-02-16T23:08:22.405Z,9.88
2023-02-16T23:11:02.497Z,9.88
2023-02-16T23:13:31.992Z,9.89
2023-02-16T23:16:07.873Z,9.89
2023-02-16T23:18:35.968Z,9.86
2023-02-16T23:21:05.130Z,9.82
2023-02-16T23:23:33.367Z,9.78
2023-02-16T23:26:01.481Z,9.77
2023-02-16T23:28:29.435Z,9.75
2023-02-16T23:30:57.499Z,9.75
2023-02-16T23:33:25.583Z,9.76
2023-02-16T23:35:54.467Z,9.78
2023-02-16T23:38:22.378Z,9.79
2023-02-16T23:41:00.908Z,9.78
2023-02-16T23:43:29.307Z,9.78
2023-02-16T23:45:57.680Z,9.79
2023-02-16T23:48:26.600Z,9.82
2023-02-16T23:50:54.611Z,9.83
2023-02-16T23:53:23.317Z,9.84
2023-02-16T23:56:12.915Z,9.87
2023-02-16T23:58:41.925Z,9.86
